DLH8HX EDDF-LIRF
Flight info
| Callsign | DLH8HX |
|---|---|
| Flight time | N/A |
| Altitude | 37000 |
| Route | CINDY8S/18 CINDY Z74 LAMPU DCT NOMBO Y161 RIDAR DCT KONIN DCT BERAS DCT LIKDA DCT BAKOR DCT VESAL DCT VIC DCT KOPER DCT SUKOM DCT GAVRA DCT RITEB |
| Aircraft | A321/M-SDE2E3FGIJ1LORWXYZ/HB1 |
Departure
| Time | 2026-05-04 18:46 |
|---|---|
| Airport | Frankfurt Main Airport (EDDF) |
Arrival
| Time | N/A |
|---|---|
| Airport | Rome–Fiumicino Leonardo da Vinci International Airport (LIRF) |
| Time | Latitude | Longitude | Altitude | Speed | Heading |
|---|---|---|---|---|---|
| 2026-05-04 18:08 | 50.04406 | 8.56221 | 358 ft | 0 kts | 159° |
| 2026-05-04 18:32 | 50.04407 | 8.56220 | 359 ft | 1 kts | 159° |
| 2026-05-04 18:32 | 50.04429 | 8.56207 | 361 ft | 4 kts | 159° |
| 2026-05-04 18:32 | 50.04449 | 8.56195 | 361 ft | 4 kts | 164° |
| 2026-05-04 18:32 | 50.04469 | 8.56198 | 359 ft | 4 kts | 236° |
| 2026-05-04 18:33 | 50.04472 | 8.56201 | 359 ft | 4 kts | 250° |
| 2026-05-04 18:33 | 50.04462 | 8.56161 | 359 ft | 4 kts | 250° |
| 2026-05-04 18:33 | 50.04453 | 8.56122 | 361 ft | 3 kts | 249° |
| 2026-05-04 18:33 | 50.04452 | 8.56117 | 360 ft | 0 kts | 249° |
| 2026-05-04 18:36 | 50.04451 | 8.56114 | 366 ft | 0 kts | 249° |
| 2026-05-04 18:37 | 50.04438 | 8.56066 | 364 ft | 8 kts | 240° |
| 2026-05-04 18:37 | 50.04389 | 8.56037 | 359 ft | 9 kts | 168° |
| 2026-05-04 18:37 | 50.04325 | 8.56066 | 359 ft | 11 kts | 159° |
| 2026-05-04 18:37 | 50.04263 | 8.56029 | 361 ft | 11 kts | 240° |
| 2026-05-04 18:38 | 50.04231 | 8.55907 | 361 ft | 15 kts | 249° |
| 2026-05-04 18:38 | 50.04187 | 8.55722 | 363 ft | 17 kts | 250° |
| 2026-05-04 18:38 | 50.04143 | 8.55539 | 361 ft | 19 kts | 249° |
| 2026-05-04 18:38 | 50.04096 | 8.55343 | 360 ft | 20 kts | 250° |
| 2026-05-04 18:39 | 50.04046 | 8.55134 | 361 ft | 21 kts | 249° |
| 2026-05-04 18:39 | 50.03993 | 8.54912 | 363 ft | 22 kts | 250° |
| 2026-05-04 18:39 | 50.03938 | 8.54679 | 360 ft | 24 kts | 250° |
| 2026-05-04 18:39 | 50.03880 | 8.54436 | 362 ft | 24 kts | 249° |
| 2026-05-04 18:40 | 50.03807 | 8.54249 | 358 ft | 20 kts | 243° |
| 2026-05-04 18:40 | 50.03756 | 8.54039 | 360 ft | 21 kts | 250° |
| 2026-05-04 18:40 | 50.03703 | 8.53819 | 360 ft | 23 kts | 250° |
| 2026-05-04 18:40 | 50.03646 | 8.53585 | 364 ft | 24 kts | 248° |
| 2026-05-04 18:41 | 50.03586 | 8.53341 | 363 ft | 25 kts | 250° |
| 2026-05-04 18:41 | 50.03527 | 8.53093 | 363 ft | 23 kts | 249° |
| 2026-05-04 18:41 | 50.03475 | 8.52877 | 361 ft | 21 kts | 247° |
| 2026-05-04 18:41 | 50.03438 | 8.52748 | 365 ft | 9 kts | 249° |
| 2026-05-04 18:42 | 50.03435 | 8.52735 | 366 ft | 0 kts | 250° |
| 2026-05-04 18:44 | 50.03434 | 8.52728 | 367 ft | 3 kts | 250° |
| 2026-05-04 18:44 | 50.03421 | 8.52676 | 366 ft | 7 kts | 250° |
| 2026-05-04 18:45 | 50.03399 | 8.52604 | 364 ft | 8 kts | 222° |
| 2026-05-04 18:45 | 50.03267 | 8.52596 | 363 ft | 48 kts | 180° |
| 2026-05-04 18:45 | 50.02661 | 8.52601 | 363 ft | 123 kts | 180° |
| 2026-05-04 18:45 | 50.01599 | 8.52613 | 432 ft | 173 kts | 179° |
| 2026-05-04 18:46 | 50.00378 | 8.52634 | 1101 ft | 177 kts | 179° |
| 2026-05-04 18:46 | 49.99133 | 8.52649 | 1722 ft | 186 kts | 179° |
| 2026-05-04 18:46 | 49.97771 | 8.52741 | 2045 ft | 206 kts | 171° |
| 2026-05-04 18:46 | 49.96426 | 8.53724 | 2281 ft | 227 kts | 136° |
| 2026-05-04 18:47 | 49.95513 | 8.55752 | 2833 ft | 232 kts | 116° |
| 2026-05-04 18:47 | 49.94746 | 8.57989 | 3474 ft | 237 kts | 118° |
| 2026-05-04 18:47 | 49.94134 | 8.60352 | 4324 ft | 237 kts | 104° |
| 2026-05-04 18:47 | 49.93945 | 8.63009 | 4766 ft | 258 kts | 93° |
| 2026-05-04 18:48 | 49.93848 | 8.65869 | 5329 ft | 270 kts | 95° |
| 2026-05-04 18:48 | 49.93411 | 8.68700 | 6054 ft | 272 kts | 117° |
| 2026-05-04 18:48 | 49.92317 | 8.71065 | 6837 ft | 270 kts | 140° |
| 2026-05-04 18:48 | 49.90813 | 8.72811 | 7608 ft | 271 kts | 147° |
| 2026-05-04 18:49 | 49.89277 | 8.74538 | 8385 ft | 276 kts | 142° |
| 2026-05-04 18:49 | 49.87982 | 8.76772 | 9127 ft | 284 kts | 127° |
| 2026-05-04 18:49 | 49.86988 | 8.79457 | 9882 ft | 289 kts | 122° |
| 2026-05-04 18:49 | 49.86006 | 8.82204 | 10469 ft | 298 kts | 122° |
| 2026-05-04 18:50 | 49.84954 | 8.85113 | 10651 ft | 321 kts | 122° |
| 2026-05-04 18:50 | 49.83827 | 8.88206 | 10977 ft | 335 kts | 122° |
| 2026-05-04 18:50 | 49.82672 | 8.91382 | 11568 ft | 341 kts | 122° |
| 2026-05-04 18:50 | 49.81504 | 8.94602 | 12229 ft | 345 kts | 122° |
| 2026-05-04 18:51 | 49.80317 | 8.97864 | 12889 ft | 348 kts | 122° |
| 2026-05-04 18:51 | 49.79126 | 9.01134 | 13538 ft | 352 kts | 122° |
| 2026-05-04 18:51 | 49.77920 | 9.04447 | 14147 ft | 356 kts | 122° |
| 2026-05-04 18:51 | 49.76718 | 9.07814 | 14721 ft | 360 kts | 118° |
| 2026-05-04 18:52 | 49.75829 | 9.11466 | 15300 ft | 366 kts | 107° |
| 2026-05-04 18:52 | 49.75191 | 9.15297 | 15884 ft | 369 kts | 110° |
| 2026-05-04 18:52 | 49.74191 | 9.18932 | 16457 ft | 368 kts | 122° |
| 2026-05-04 18:52 | 49.72772 | 9.22159 | 17016 ft | 368 kts | 133° |
| 2026-05-04 18:53 | 49.71084 | 9.25147 | 17616 ft | 370 kts | 134° |
| 2026-05-04 18:53 | 49.69377 | 9.28154 | 18185 ft | 373 kts | 134° |
| 2026-05-04 18:53 | 49.67659 | 9.31177 | 18677 ft | 376 kts | 134° |
| 2026-05-04 18:53 | 49.65925 | 9.34225 | 19165 ft | 379 kts | 134° |
| 2026-05-04 18:54 | 49.64179 | 9.37291 | 19662 ft | 382 kts | 134° |
| 2026-05-04 18:54 | 49.62379 | 9.40306 | 20140 ft | 382 kts | 140° |
| 2026-05-04 18:54 | 49.60293 | 9.42837 | 20623 ft | 381 kts | 150° |
| 2026-05-04 18:54 | 49.58017 | 9.44938 | 21082 ft | 383 kts | 152° |
| 2026-05-04 18:55 | 49.55721 | 9.47035 | 21538 ft | 385 kts | 152° |
| 2026-05-04 18:55 | 49.51071 | 9.51285 | 22415 ft | 391 kts | 152° |
| 2026-05-04 18:55 | 49.48722 | 9.53432 | 22864 ft | 394 kts | 153° |
| 2026-05-04 18:56 | 49.46356 | 9.55591 | 23296 ft | 397 kts | 153° |
| 2026-05-04 18:56 | 49.43977 | 9.57759 | 23706 ft | 399 kts | 153° |
| 2026-05-04 18:56 | 49.41581 | 9.59937 | 24083 ft | 401 kts | 153° |
| 2026-05-04 18:56 | 49.39169 | 9.62121 | 24465 ft | 403 kts | 153° |
| 2026-05-04 18:57 | 49.36745 | 9.64315 | 24844 ft | 406 kts | 153° |
| 2026-05-04 18:57 | 49.34353 | 9.66641 | 25214 ft | 410 kts | 147° |
| 2026-05-04 18:57 | 49.32200 | 9.69557 | 25587 ft | 416 kts | 138° |
| 2026-05-04 18:57 | 49.30149 | 9.72715 | 25954 ft | 419 kts | 139° |
| 2026-05-04 18:58 | 49.28088 | 9.75870 | 26329 ft | 420 kts | 139° |
| 2026-05-04 18:58 | 49.26008 | 9.79040 | 26693 ft | 422 kts | 139° |
| 2026-05-04 18:58 | 49.23921 | 9.82214 | 27050 ft | 425 kts | 139° |
| 2026-05-04 18:58 | 49.21820 | 9.85405 | 27397 ft | 427 kts | 139° |
| 2026-05-04 18:59 | 49.19707 | 9.88610 | 27757 ft | 429 kts | 139° |
| 2026-05-04 18:59 | 49.17581 | 9.91829 | 28114 ft | 431 kts | 139° |
| 2026-05-04 18:59 | 49.15449 | 9.95053 | 28468 ft | 433 kts | 139° |
| 2026-05-04 18:59 | 49.13306 | 9.98299 | 28821 ft | 435 kts | 139° |
| 2026-05-04 19:00 | 49.11155 | 10.01554 | 29165 ft | 437 kts | 139° |
| 2026-05-04 19:00 | 49.08995 | 10.04823 | 29510 ft | 438 kts | 140° |
| 2026-05-04 19:00 | 49.06826 | 10.08097 | 29854 ft | 440 kts | 139° |
| 2026-05-04 19:00 | 49.04633 | 10.11359 | 30187 ft | 441 kts | 140° |
| 2026-05-04 19:01 | 49.02398 | 10.14570 | 30472 ft | 442 kts | 141° |
| 2026-05-04 19:01 | 49.00132 | 10.17752 | 30719 ft | 444 kts | 141° |
| 2026-05-04 19:01 | 48.97846 | 10.20931 | 30915 ft | 447 kts | 141° |
| 2026-05-04 19:01 | 48.95541 | 10.24133 | 31142 ft | 449 kts | 141° |
| 2026-05-04 19:02 | 48.93221 | 10.27371 | 31373 ft | 451 kts | 141° |
| 2026-05-04 19:02 | 48.90923 | 10.30598 | 31637 ft | 452 kts | 141° |
| 2026-05-04 19:02 | 48.88622 | 10.33845 | 31980 ft | 451 kts | 141° |
| 2026-05-04 19:02 | 48.86326 | 10.37087 | 32299 ft | 450 kts | 141° |
| 2026-05-04 19:03 | 48.84031 | 10.40322 | 32625 ft | 450 kts | 141° |
| 2026-05-04 19:03 | 48.81760 | 10.43579 | 32961 ft | 449 kts | 139° |
| 2026-05-04 19:03 | 48.79567 | 10.46945 | 33314 ft | 449 kts | 137° |
| 2026-05-04 19:03 | 48.77429 | 10.50393 | 33645 ft | 448 kts | 136° |
| 2026-05-04 19:04 | 48.75322 | 10.53873 | 33946 ft | 447 kts | 135° |
| 2026-05-04 19:04 | 48.73255 | 10.57293 | 34249 ft | 446 kts | 135° |
| 2026-05-04 19:04 | 48.71152 | 10.60734 | 34515 ft | 445 kts | 136° |
| 2026-05-04 19:04 | 48.69033 | 10.64147 | 34753 ft | 445 kts | 136° |
| 2026-05-04 19:05 | 48.66900 | 10.67545 | 34993 ft | 445 kts | 137° |
| 2026-05-04 19:05 | 48.64763 | 10.70925 | 35233 ft | 445 kts | 137° |
| 2026-05-04 19:05 | 48.62620 | 10.74305 | 35469 ft | 445 kts | 137° |
| 2026-05-04 19:05 | 48.60465 | 10.77656 | 35700 ft | 444 kts | 140° |
| 2026-05-04 19:06 | 48.58084 | 10.80589 | 35921 ft | 440 kts | 149° |
| 2026-05-04 19:06 | 48.55463 | 10.82927 | 36143 ft | 437 kts | 156° |
| 2026-05-04 19:06 | 48.52758 | 10.85028 | 36376 ft | 437 kts | 156° |
| 2026-05-04 19:06 | 48.50060 | 10.87133 | 36561 ft | 437 kts | 155° |
| 2026-05-04 19:07 | 48.47356 | 10.89247 | 36738 ft | 438 kts | 155° |
| 2026-05-04 19:07 | 48.44650 | 10.91365 | 36908 ft | 439 kts | 155° |
| 2026-05-04 19:07 | 48.39246 | 10.95585 | 36946 ft | 437 kts | 156° |
| 2026-05-04 19:08 | 48.33852 | 10.99775 | 36947 ft | 436 kts | 156° |
| 2026-05-04 19:08 | 48.28461 | 11.03946 | 36969 ft | 436 kts | 156° |
| 2026-05-04 19:09 | 48.23059 | 11.08072 | 36969 ft | 434 kts | 160° |
| 2026-05-04 19:09 | 48.17437 | 11.11351 | 36974 ft | 434 kts | 162° |
| 2026-05-04 19:10 | 48.11783 | 11.14500 | 36976 ft | 434 kts | 162° |
| 2026-05-04 19:10 | 48.06120 | 11.17651 | 36962 ft | 434 kts | 162° |
| 2026-05-04 19:11 | 48.00460 | 11.20824 | 36982 ft | 435 kts | 162° |
| 2026-05-04 19:11 | 47.94795 | 11.23994 | 36989 ft | 435 kts | 162° |
| 2026-05-04 19:12 | 47.86286 | 11.28740 | 36957 ft | 435 kts | 162° |
| 2026-05-04 19:13 | 47.80616 | 11.31897 | 36967 ft | 435 kts | 162° |
| 2026-05-04 19:13 | 47.74942 | 11.35054 | 36960 ft | 435 kts | 162° |
| 2026-05-04 19:14 | 47.69262 | 11.38200 | 36962 ft | 435 kts | 162° |
| 2026-05-04 19:14 | 47.63586 | 11.41343 | 36963 ft | 436 kts | 162° |
| 2026-05-04 19:15 | 47.57907 | 11.44481 | 36961 ft | 436 kts | 162° |
| 2026-05-04 19:15 | 47.52217 | 11.47610 | 36976 ft | 436 kts | 162° |
| 2026-05-04 19:16 | 47.46563 | 11.50711 | 36981 ft | 436 kts | 162° |
| 2026-05-04 19:16 | 47.40865 | 11.53827 | 36982 ft | 437 kts | 162° |
| 2026-05-04 19:17 | 47.35169 | 11.56936 | 36986 ft | 437 kts | 162° |
| 2026-05-04 19:17 | 47.29502 | 11.60018 | 36993 ft | 437 kts | 163° |
| 2026-05-04 19:18 | 47.23769 | 11.63138 | 36995 ft | 437 kts | 162° |
| 2026-05-04 19:18 | 47.18066 | 11.66243 | 36987 ft | 437 kts | 163° |
| 2026-05-04 19:19 | 47.12366 | 11.69327 | 36987 ft | 437 kts | 163° |
| 2026-05-04 19:19 | 47.06651 | 11.72407 | 37021 ft | 438 kts | 163° |
| 2026-05-04 19:20 | 47.00833 | 11.74732 | 37031 ft | 430 kts | 178° |
| 2026-05-04 19:20 | 46.94893 | 11.74726 | 37030 ft | 427 kts | 185° |
| 2026-05-04 19:21 | 46.88946 | 11.74375 | 37025 ft | 428 kts | 185° |
| 2026-05-04 19:21 | 46.82981 | 11.74051 | 37045 ft | 430 kts | 185° |
| 2026-05-04 19:22 | 46.77002 | 11.73747 | 37047 ft | 430 kts | 185° |
| 2026-05-04 19:22 | 46.71015 | 11.73417 | 37049 ft | 431 kts | 185° |
| 2026-05-04 19:23 | 46.65024 | 11.73088 | 37062 ft | 431 kts | 185° |
| 2026-05-04 19:23 | 46.59026 | 11.72760 | 37066 ft | 431 kts | 185° |
| 2026-05-04 19:24 | 46.53024 | 11.72421 | 37073 ft | 432 kts | 185° |
| 2026-05-04 19:24 | 46.47021 | 11.72087 | 37076 ft | 432 kts | 185° |
| 2026-05-04 19:25 | 46.41016 | 11.71758 | 37087 ft | 432 kts | 185° |
| 2026-05-04 19:25 | 46.35009 | 11.71423 | 37106 ft | 432 kts | 185° |
| 2026-05-04 19:26 | 46.29002 | 11.71103 | 37107 ft | 432 kts | 185° |
| 2026-05-04 19:26 | 46.22983 | 11.70775 | 37111 ft | 433 kts | 185° |
| 2026-05-04 19:27 | 46.16968 | 11.70458 | 37111 ft | 433 kts | 185° |
| 2026-05-04 19:27 | 46.10949 | 11.70135 | 37114 ft | 433 kts | 185° |
| 2026-05-04 19:28 | 46.04962 | 11.69814 | 37122 ft | 433 kts | 185° |
| 2026-05-04 19:28 | 45.98943 | 11.69496 | 37125 ft | 433 kts | 185° |
| 2026-05-04 19:29 | 45.92921 | 11.69184 | 37127 ft | 433 kts | 185° |
| 2026-05-04 19:29 | 45.86905 | 11.68866 | 37137 ft | 433 kts | 185° |
| 2026-05-04 19:30 | 45.81859 | 11.68593 | 37131 ft | 433 kts | 185° |
| 2026-05-04 19:30 | 45.74865 | 11.68221 | 37113 ft | 433 kts | 185° |
| 2026-05-04 19:31 | 45.68842 | 11.67905 | 37094 ft | 433 kts | 185° |
| 2026-05-04 19:31 | 45.63836 | 11.67638 | 37084 ft | 433 kts | 186° |
| 2026-05-04 19:32 | 45.57820 | 11.67249 | 37089 ft | 433 kts | 186° |
| 2026-05-04 19:32 | 45.51806 | 11.66787 | 37078 ft | 433 kts | 187° |